Time;durP1;ratioP1;P1;durP2;ratioP2;P2;SDS_P1;SDS_P2;PMS_P1;PMS_P2;Temp;Humidity;BMP_temperature;BMP_pressure;BME280_temperature;BME280_humidity;BME280_pressure;Samples;Min_cycle;Max_cycle;Signal;HPM_P1;HPM_P2
2023/10/11 00:00:39;;;;;;;6.95;4.55;;;16.00;99.90;;;;;;5097457;28;20040;-68
2023/10/11 00:03:17;;;;;;;7.93;4.90;;;16.00;99.90;;;;;;5098826;28;20031;-68
2023/10/11 00:05:45;;;;;;;6.75;4.68;;;16.00;99.90;;;;;;5098593;28;20020;-68
2023/10/11 00:08:13;;;;;;;7.05;4.60;;;16.00;99.90;;;;;;5098936;28;20513;-68
2023/10/11 00:10:53;;;;;;;6.43;4.65;;;16.00;99.90;;;;;;5099072;28;20099;-68
2023/10/11 00:13:20;;;;;;;6.38;4.47;;;16.00;99.50;;;;;;5098692;28;20024;-68
2023/10/11 00:15:50;;;;;;;6.00;4.65;;;16.00;99.90;;;;;;5098199;28;20137;-68
2023/10/11 00:18:22;;;;;;;8.65;4.93;;;16.00;99.90;;;;;;5098518;28;20024;-67
2023/10/11 00:20:52;;;;;;;7.43;4.82;;;15.90;99.90;;;;;;5097914;28;20140;-67
2023/10/11 00:23:23;;;;;;;7.65;4.78;;;15.90;99.90;;;;;;5098383;28;20081;-67
2023/10/11 00:25:55;;;;;;;7.60;4.90;;;15.90;99.90;;;;;;5097659;28;20095;-67
2023/10/11 00:28:26;;;;;;;6.40;4.60;;;15.90;99.90;;;;;;5098202;28;20027;-67
2023/10/11 00:30:57;;;;;;;7.55;5.00;;;15.90;99.90;;;;;;5098201;28;20111;-67
2023/10/11 00:33:24;;;;;;;8.32;4.93;;;15.90;99.90;;;;;;5097955;28;20396;-67
2023/10/11 00:35:51;;;;;;;6.93;4.88;;;15.90;99.90;;;;;;5097681;28;20027;-67
2023/10/11 00:38:21;;;;;;;6.93;4.72;;;15.90;99.90;;;;;;5097756;28;20086;-67
2023/10/11 00:41:12;;;;;;;7.85;5.35;;;15.80;99.90;;;;;;5097492;28;20026;-68
2023/10/11 00:43:39;;;;;;;8.45;5.22;;;15.80;99.90;;;;;;5081236;28;20024;-67
2023/10/11 00:46:09;;;;;;;7.43;5.03;;;15.90;99.90;;;;;;5096133;28;20559;-67
2023/10/11 00:51:31;;;;;;;6.35;4.30;;;15.80;99.90;;;;;;5097467;28;20043;-67
2023/10/11 00:54:01;;;;;;;5.75;4.25;;;15.80;99.90;;;;;;5097713;28;20024;-67
2023/10/11 00:56:31;;;;;;;7.82;5.13;;;15.80;99.90;;;;;;5095840;28;20557;-67
2023/10/11 00:59:03;;;;;;;8.27;4.00;;;15.80;99.90;;;;;;5095876;28;20085;-68
2023/10/11 01:01:29;;;;;;;6.68;4.40;;;15.70;99.90;;;;;;5097189;28;20030;-67
2023/10/11 01:03:55;;;;;;;10.07;4.70;;;15.60;99.90;;;;;;5097477;28;20079;-67
2023/10/11 01:06:25;;;;;;;6.68;4.38;;;15.50;99.90;;;;;;5095808;28;20048;-67
2023/10/11 01:08:52;;;;;;;5.93;4.25;;;15.50;99.90;;;;;;5097303;28;20031;-67
2023/10/11 01:11:17;;;;;;;6.20;4.57;;;15.60;99.90;;;;;;5083648;28;20039;-67
2023/10/11 01:13:50;;;;;;;5.93;4.47;;;15.60;99.90;;;;;;5097257;28;20032;-68
2023/10/11 01:16:17;;;;;;;8.13;4.45;;;15.60;99.90;;;;;;5095813;28;20054;-67
2023/10/11 01:18:43;;;;;;;6.63;4.82;;;15.60;99.90;;;;;;5095677;28;20056;-67
2023/10/11 01:21:09;;;;;;;8.27;4.68;;;15.60;99.90;;;;;;5095592;28;20039;-67
2023/10/11 01:23:35;;;;;;;5.85;4.07;;;15.70;99.90;;;;;;5097169;28;20400;-67
2023/10/11 01:26:07;;;;;;;8.27;5.22;;;15.60;99.90;;;;;;5097065;28;20036;-67
2023/10/11 01:28:37;;;;;;;6.03;4.18;;;15.70;99.90;;;;;;5096913;28;20413;-67
2023/10/11 01:31:08;;;;;;;9.18;5.30;;;15.60;99.90;;;;;;5097226;28;20028;-67
2023/10/11 01:33:41;;;;;;;8.60;4.90;;;15.60;99.90;;;;;;5096673;28;20031;-67
2023/10/11 01:36:08;;;;;;;9.93;5.20;;;15.60;99.90;;;;;;5096713;28;20024;-67
2023/10/11 01:38:46;;;;;;;8.90;4.75;;;15.50;99.90;;;;;;5096846;28;20032;-67
2023/10/11 01:41:19;;;;;;;8.38;5.18;;;15.50;99.90;;;;;;5096528;28;20087;-67
2023/10/11 01:43:49;;;;;;;6.32;4.25;;;15.50;99.90;;;;;;5083471;28;20024;-67
2023/10/11 01:46:35;;;;;;;6.28;4.32;;;15.50;99.90;;;;;;5096775;28;20027;-67
2023/10/11 01:49:01;;;;;;;6.28;4.75;;;15.50;99.90;;;;;;5092424;28;20484;-67
2023/10/11 01:51:27;;;;;;;6.68;4.93;;;15.50;99.90;;;;;;5096451;28;20016;-67
2023/10/11 01:53:54;;;;;;;5.82;4.72;;;15.50;99.90;;;;;;5099067;28;20082;-67
2023/10/11 01:56:23;;;;;;;5.10;3.40;;;15.50;99.90;;;;;;5099361;28;20081;-67
2023/10/11 01:58:53;;;;;;;8.10;5.03;;;15.40;99.90;;;;;;5096861;28;20032;-68
2023/10/11 02:01:25;;;;;;;6.57;5.00;;;15.40;99.90;;;;;;5096243;28;20114;-68
2023/10/11 02:03:53;;;;;;;7.85;4.78;;;15.40;99.90;;;;;;5096830;28;20021;-68
2023/10/11 02:06:21;;;;;;;7.57;4.72;;;15.40;99.90;;;;;;5096231;28;20017;-68
2023/10/11 02:08:46;;;;;;;6.22;4.30;;;15.40;99.90;;;;;;5096777;28;20111;-68
2023/10/11 02:11:15;;;;;;;6.85;3.95;;;15.40;99.90;;;;;;5096911;28;20050;-68
2023/10/11 02:13:42;;;;;;;6.35;4.43;;;15.40;99.90;;;;;;5096456;28;20062;-68
2023/10/11 02:16:10;;;;;;;7.85;4.68;;;15.40;99.90;;;;;;5096314;28;20028;-68
2023/10/11 02:18:35;;;;;;;9.85;5.07;;;15.30;99.90;;;;;;5096416;28;20031;-68
2023/10/11 02:21:06;;;;;;;8.20;5.00;;;15.30;99.90;;;;;;5096080;28;20024;-68
2023/10/11 02:23:39;;;;;;;8.45;4.85;;;15.30;99.90;;;;;;5096316;28;20039;-68
2023/10/11 02:26:16;;;;;;;6.22;4.28;;;15.20;99.90;;;;;;5096448;28;20016;-68
2023/10/11 02:28:44;;;;;;;6.20;4.35;;;15.20;99.90;;;;;;5094776;28;20040;-68
2023/10/11 02:31:13;;;;;;;7.90;5.05;;;15.30;99.90;;;;;;5096359;28;20028;-68
2023/10/11 02:33:39;;;;;;;7.10;5.00;;;15.30;99.90;;;;;;5096107;28;20024;-68
2023/10/11 02:36:10;;;;;;;6.75;4.88;;;15.40;99.90;;;;;;5095954;28;20031;-68
2023/10/11 02:38:41;;;;;;;7.10;5.25;;;15.40;99.90;;;;;;5096108;28;20031;-68
2023/10/11 02:41:08;;;;;;;7.10;4.47;;;15.40;99.90;;;;;;5089814;28;20027;-68
2023/10/11 02:43:47;;;;;;;7.50;5.30;;;15.40;99.90;;;;;;5095889;28;20034;-68
2023/10/11 02:46:13;;;;;;;8.38;4.65;;;15.40;99.90;;;;;;5094536;28;20430;-68
2023/10/11 02:48:45;;;;;;;7.03;5.03;;;15.40;99.90;;;;;;5095977;28;20048;-68
2023/10/11 02:51:17;;;;;;;10.87;5.40;;;15.40;99.90;;;;;;5095862;28;20017;-68
2023/10/11 02:53:46;;;;;;;7.00;5.07;;;15.40;99.90;;;;;;5096257;28;20017;-67
2023/10/11 02:56:14;;;;;;;6.00;4.43;;;15.40;99.90;;;;;;5095867;28;20085;-67
2023/10/11 02:58:39;;;;;;;7.53;5.32;;;15.40;99.90;;;;;;5096114;28;20028;-67
2023/10/11 03:01:14;;;;;;;7.32;5.30;;;15.40;99.90;;;;;;5095587;28;20052;-68
2023/10/11 03:03:41;;;;;;;6.18;5.03;;;15.40;99.90;;;;;;5096197;28;20035;-67
2023/10/11 03:06:07;;;;;;;7.22;5.10;;;15.40;99.90;;;;;;5094428;28;20091;-67
2023/10/11 03:08:33;;;;;;;6.25;4.88;;;15.40;99.90;;;;;;5098839;28;20103;-68
2023/10/11 03:10:59;;;;;;;7.22;5.10;;;15.30;99.90;;;;;;5100118;28;20062;-68
2023/10/11 03:13:29;;;;;;;7.88;5.30;;;15.40;99.90;;;;;;5099576;28;20020;-67
2023/10/11 03:15:57;;;;;;;6.50;4.72;;;15.40;99.90;;;;;;5099371;28;20034;-68
2023/10/11 03:18:32;;;;;;;6.70;4.70;;;15.40;99.90;;;;;;5099652;28;20052;-68
2023/10/11 03:21:19;;;;;;;8.10;5.70;;;15.40;99.90;;;;;;5098979;28;20444;-67
2023/10/11 03:23:54;;;;;;;7.15;4.55;;;15.40;99.90;;;;;;5097980;28;20020;-69
2023/10/11 03:26:31;;;;;;;6.82;4.82;;;15.40;99.90;;;;;;5097948;28;20035;-68
2023/10/11 03:29:05;;;;;;;7.40;5.20;;;15.40;99.90;;;;;;5097903;28;20020;-67
2023/10/11 03:31:33;;;;;;;6.80;4.90;;;15.30;99.90;;;;;;5099337;28;20024;-68
2023/10/11 03:33:59;;;;;;;7.45;4.82;;;15.30;99.90;;;;;;5099095;28;20052;-67
2023/10/11 03:36:35;;;;;;;6.75;4.80;;;15.40;99.90;;;;;;5097447;28;20484;-68
2023/10/11 03:39:10;;;;;;;7.65;5.13;;;15.40;99.90;;;;;;5097649;28;20032;-68
2023/10/11 03:41:44;;;;;;;8.15;5.38;;;15.40;99.90;;;;;;5088366;28;20079;-67
2023/10/11 03:44:10;;;;;;;8.40;5.65;;;15.40;99.90;;;;;;5099195;28;20020;-67
2023/10/11 03:46:36;;;;;;;7.93;5.38;;;15.40;99.90;;;;;;5098894;28;20436;-67
2023/10/11 03:49:13;;;;;;;7.47;5.38;;;15.40;99.90;;;;;;5099038;28;20102;-67
2023/10/11 03:51:43;;;;;;;7.90;5.45;;;15.40;99.90;;;;;;5098678;28;20107;-67
2023/10/11 03:54:22;;;;;;;8.68;5.45;;;15.40;99.90;;;;;;5098855;28;20016;-67
2023/10/11 03:56:52;;;;;;;7.03;4.78;;;15.40;99.90;;;;;;5072258;28;20032;-67
2023/10/11 03:59:28;;;;;;;6.47;4.80;;;15.40;99.90;;;;;;5096961;28;20048;-67
2023/10/11 04:01:55;;;;;;;7.78;5.18;;;15.40;99.90;;;;;;5098822;28;20020;-67
2023/10/11 04:04:21;;;;;;;7.13;5.10;;;15.40;99.90;;;;;;5097133;28;20020;-67
2023/10/11 04:07:00;;;;;;;6.68;4.68;;;15.40;99.90;;;;;;5098560;28;20020;-67
2023/10/11 04:09:37;;;;;;;7.25;4.88;;;15.40;99.90;;;;;;5100312;28;20023;-67
2023/10/11 04:12:04;;;;;;;7.97;5.07;;;15.40;99.90;;;;;;5105086;28;20024;-67
2023/10/11 04:14:44;;;;;;;6.53;4.63;;;15.30;99.90;;;;;;5098570;28;20024;-68
2023/10/11 04:17:15;;;;;;;5.93;4.38;;;15.30;99.90;;;;;;5098419;28;20027;-67
2023/10/11 04:19:42;;;;;;;7.30;5.20;;;15.30;99.90;;;;;;5098106;28;20464;-68
2023/10/11 04:22:16;;;;;;;6.57;4.57;;;15.30;99.90;;;;;;5096937;28;20027;-67
2023/10/11 04:24:43;;;;;;;6.68;4.43;;;15.30;99.90;;;;;;5096850;28;20028;-68
2023/10/11 04:29:47;;;;;;;6.68;4.68;;;15.20;99.90;;;;;;5098430;28;20032;-68
2023/10/11 04:32:14;;;;;;;6.63;4.50;;;15.20;99.90;;;;;;5098040;28;20454;-68
2023/10/11 04:34:55;;;;;;;6.85;4.28;;;15.20;99.90;;;;;;5097790;28;20165;-68
2023/10/11 04:37:43;;;;;;;6.15;4.20;;;15.20;99.90;;;;;;5097989;28;20020;-68
2023/10/11 04:40:42;;;;;;;7.13;4.75;;;15.20;99.90;;;;;;5097540;28;20357;-68
2023/10/11 04:43:29;;;;;;;6.38;4.70;;;15.10;99.90;;;;;;5090201;28;20028;-68
2023/10/11 04:45:59;;;;;;;6.63;4.45;;;15.10;99.90;;;;;;5097970;28;20052;-68
2023/10/11 04:48:29;;;;;;;6.95;4.93;;;15.10;99.90;;;;;;5097640;28;20028;-69
2023/10/11 04:51:04;;;;;;;6.20;4.03;;;15.10;99.90;;;;;;5097440;28;20039;-68
2023/10/11 04:53:37;;;;;;;5.97;3.92;;;15.00;99.90;;;;;;5097793;28;20370;-68
2023/10/11 04:58:52;;;;;;;5.70;4.50;;;15.10;99.90;;;;;;5097447;28;20027;-68
2023/10/11 05:01:22;;;;;;;5.82;4.03;;;15.00;99.90;;;;;;5097156;28;20576;-69
2023/10/11 05:03:59;;;;;;;4.88;3.75;;;15.00;99.90;;;;;;5097440;28;20077;-68
2023/10/11 05:06:39;;;;;;;4.10;3.42;;;15.00;99.90;;;;;;5096960;28;20032;-68
2023/10/11 05:11:44;;;;;;;4.97;3.65;;;15.00;99.90;;;;;;5107089;28;20041;-68
2023/10/11 05:14:26;;;;;;;6.82;4.25;;;15.00;99.90;;;;;;5095599;28;20480;-68
2023/10/11 05:16:58;;;;;;;5.60;4.22;;;15.00;99.90;;;;;;5097297;28;20074;-68
2023/10/11 05:19:28;;;;;;;5.00;3.93;;;15.00;99.90;;;;;;5097044;28;20027;-68
2023/10/11 05:21:55;;;;;;;5.50;4.05;;;15.00;99.90;;;;;;5096815;28;20273;-68
2023/10/11 05:30:06;;;;;;;5.03;3.85;;;15.00;99.90;;;;;;5095971;28;20092;-68
2023/10/11 05:32:32;;;;;;;4.60;3.80;;;15.00;99.90;;;;;;5096766;28;20472;-68
2023/10/11 05:51:26;;;;;;;5.03;3.45;;;14.80;99.90;;;;;;5096605;28;20058;-68
2023/10/11 05:53:56;;;;;;;4.45;3.40;;;14.80;99.90;;;;;;5096712;28;20027;-68
2023/10/11 05:56:22;;;;;;;4.80;3.80;;;14.80;99.90;;;;;;5096103;28;20035;-68
2023/10/11 05:58:52;;;;;;;5.30;3.85;;;14.80;99.90;;;;;;5096182;28;20028;-68
2023/10/11 06:01:22;;;;;;;6.10;3.92;;;14.80;99.90;;;;;;5094690;28;20109;-68
2023/10/11 06:03:49;;;;;;;5.50;4.10;;;14.70;99.90;;;;;;5096594;28;20020;-68
2023/10/11 06:06:26;;;;;;;5.32;3.92;;;14.70;99.90;;;;;;5094646;28;20074;-68
2023/10/11 06:08:53;;;;;;;4.38;3.33;;;14.70;99.90;;;;;;5096598;28;20024;-68
2023/10/11 06:11:19;;;;;;;3.85;3.38;;;14.70;99.90;;;;;;5095114;28;20043;-69
2023/10/11 06:13:47;;;;;;;3.85;2.97;;;14.70;99.90;;;;;;5096291;28;20039;-70
2023/10/11 06:16:15;;;;;;;4.30;3.40;;;14.70;99.90;;;;;;5096439;28;20024;-69
2023/10/11 06:18:57;;;;;;;4.18;3.60;;;14.60;99.90;;;;;;5096268;28;20025;-69
2023/10/11 06:21:30;;;;;;;4.45;3.35;;;14.60;99.90;;;;;;5096380;28;20487;-69
2023/10/11 06:23:57;;;;;;;4.45;3.22;;;14.60;99.90;;;;;;5096149;28;20476;-69
2023/10/11 06:26:28;;;;;;;4.53;3.80;;;14.60;99.90;;;;;;5096294;28;20055;-68
2023/10/11 06:29:05;;;;;;;5.18;3.75;;;14.60;99.90;;;;;;5096583;28;20031;-68
2023/10/11 06:31:34;;;;;;;4.70;3.70;;;14.60;99.90;;;;;;5095153;28;20450;-69
2023/10/11 06:34:09;;;;;;;5.05;3.88;;;14.60;99.90;;;;;;5096173;28;20461;-68
2023/10/11 06:36:35;;;;;;;4.22;3.47;;;14.60;99.90;;;;;;5095885;28;20077;-69
2023/10/11 06:39:14;;;;;;;5.05;4.28;;;14.60;99.90;;;;;;5096247;28;20020;-68
2023/10/11 06:41:50;;;;;;;4.95;3.72;;;14.60;99.90;;;;;;5115898;28;20111;-68
2023/10/11 06:44:18;;;;;;;9.70;4.18;;;14.60;99.90;;;;;;5120229;28;20015;-68
2023/10/11 06:46:46;;;;;;;9.15;4.50;;;14.60;99.90;;;;;;5119996;28;20020;-68
2023/10/11 06:49:14;;;;;;;5.97;4.10;;;14.50;99.90;;;;;;5101456;28;20073;-68
2023/10/11 06:51:41;;;;;;;4.97;3.75;;;14.60;99.90;;;;;;5119827;28;20023;-68
2023/10/11 06:54:08;;;;;;;4.88;3.67;;;14.60;99.90;;;;;;5119817;28;20396;-69
2023/10/11 06:56:35;;;;;;;6.13;4.47;;;14.60;99.90;;;;;;5119555;28;20034;-69
2023/10/11 06:59:01;;;;;;;5.97;4.40;;;14.60;99.90;;;;;;5119511;28;20083;-68
2023/10/11 07:01:30;;;;;;;6.47;4.15;;;14.60;99.90;;;;;;5119556;28;20466;-69
2023/10/11 07:03:57;;;;;;;10.75;4.68;;;14.60;99.90;;;;;;5120124;28;20018;-68
2023/10/11 07:06:23;;;;;;;8.05;4.80;;;14.60;99.90;;;;;;5104948;28;20023;-69
2023/10/11 07:08:53;;;;;;;6.30;4.60;;;14.60;99.90;;;;;;5120200;28;20102;-68
2023/10/11 07:14:15;;;;;;;7.03;4.55;;;14.70;99.90;;;;;;5120234;28;20027;-68
2023/10/11 07:16:42;;;;;;;5.68;4.38;;;14.70;99.90;;;;;;5119999;28;20023;-68
2023/10/11 07:19:09;;;;;;;5.82;4.28;;;14.70;99.90;;;;;;5119706;28;20019;-68
2023/10/11 07:21:51;;;;;;;5.57;4.25;;;14.70;99.90;;;;;;5119531;28;20509;-69
2023/10/11 07:24:33;;;;;;;6.38;4.68;;;14.70;99.90;;;;;;5120367;28;20100;-71
2023/10/11 07:27:12;;;;;;;6.63;3.78;;;14.80;99.90;;;;;;5119531;28;20048;-70
2023/10/11 07:29:44;;;;;;;4.93;3.72;;;14.90;99.90;;;;;;5119757;28;20023;-70
2023/10/11 07:32:10;;;;;;;4.83;3.80;;;14.90;99.90;;;;;;5119861;28;20028;-70
2023/10/11 07:34:37;;;;;;;5.13;3.22;;;14.90;99.90;;;;;;5101340;28;20264;-70
2023/10/11 07:37:05;;;;;;;4.93;3.97;;;15.00;99.90;;;;;;5119641;28;20060;-69
2023/10/11 07:39:33;;;;;;;4.25;3.55;;;14.90;99.90;;;;;;5103068;28;20034;-71
2023/10/11 07:42:07;;;;;;;6.00;4.22;;;14.90;99.90;;;;;;5119245;28;20035;-70
2023/10/11 07:44:40;;;;;;;5.20;3.97;;;15.00;99.90;;;;;;5119547;28;20043;-69
2023/10/11 07:47:15;;;;;;;6.15;4.45;;;15.00;99.90;;;;;;5119726;28;20034;-71
2023/10/11 07:49:41;;;;;;;5.20;4.00;;;15.00;99.90;;;;;;5119561;28;20035;-69
2023/10/11 07:52:08;;;;;;;5.20;3.97;;;15.10;99.90;;;;;;5120194;28;20031;-70
2023/10/11 07:54:36;;;;;;;6.00;4.20;;;15.10;99.90;;;;;;5119466;28;20097;-70
2023/10/11 07:57:03;;;;;;;6.70;4.72;;;15.10;99.90;;;;;;5115839;28;20046;-70
2023/10/11 07:59:30;;;;;;;6.38;4.32;;;15.10;99.90;;;;;;5087710;28;20104;-69
2023/10/11 08:01:59;;;;;;;6.38;4.75;;;15.10;99.90;;;;;;5119851;28;20051;-71
2023/10/11 08:04:29;;;;;;;6.00;4.60;;;15.10;99.90;;;;;;5119567;28;20028;-71
2023/10/11 08:06:59;;;;;;;7.22;4.70;;;15.10;99.90;;;;;;5119724;28;20073;-78
2023/10/11 08:09:45;;;;;;;6.50;4.38;;;15.10;99.90;;;;;;5104112;27;20019;-75
2023/10/11 08:12:13;;;;;;;6.40;4.38;;;15.10;99.90;;;;;;5124902;27;20050;-75
2023/10/11 08:14:44;;;;;;;5.70;4.32;;;15.20;99.90;;;;;;5126434;27;20031;-70
2023/10/11 08:17:19;;;;;;;5.82;4.25;;;15.30;99.90;;;;;;5119542;27;20152;-70
2023/10/11 08:19:46;;;;;;;6.88;4.80;;;15.30;99.90;;;;;;5130123;27;20102;-70
2023/10/11 08:22:14;;;;;;;6.95;5.10;;;15.40;99.90;;;;;;5100967;28;20031;-70
2023/10/11 08:24:48;;;;;;;6.70;5.35;;;15.40;99.90;;;;;;5100918;28;20020;-70
2023/10/11 08:27:28;;;;;;;6.05;4.70;;;15.40;99.90;;;;;;5127436;27;20022;-69
2023/10/11 08:30:09;;;;;;;7.95;5.10;;;15.50;99.90;;;;;;5100777;28;20028;-73
2023/10/11 08:32:42;;;;;;;7.15;5.63;;;15.60;99.90;;;;;;5119196;28;20051;-70
2023/10/11 08:35:10;;;;;;;6.25;4.60;;;15.60;99.90;;;;;;5118858;28;20045;-70
2023/10/11 08:37:37;;;;;;;7.93;5.50;;;15.70;99.90;;;;;;5090114;28;20034;-73
2023/10/11 08:40:34;;;;;;;7.60;5.07;;;15.80;99.90;;;;;;5115228;28;20110;-74
2023/10/11 08:43:02;;;;;;;6.35;4.75;;;15.80;99.90;;;;;;5114689;27;20518;-75
2023/10/11 08:45:33;;;;;;;6.75;5.20;;;15.80;99.90;;;;;;5100289;28;20024;-73
2023/10/11 08:48:06;;;;;;;8.38;5.40;;;15.90;99.90;;;;;;5118449;28;20018;-74
2023/10/11 08:50:35;;;;;;;7.35;5.03;;;15.90;99.90;;;;;;5117127;28;20032;-72
2023/10/11 08:53:07;;;;;;;8.55;5.25;;;16.00;99.90;;;;;;5102660;28;20031;-73
2023/10/11 08:55:35;;;;;;;7.05;5.20;;;16.00;99.90;;;;;;5108922;28;20038;-72
2023/10/11 08:58:04;;;;;;;7.40;5.13;;;16.10;99.90;;;;;;5112116;28;20016;-74
2023/10/11 09:00:33;;;;;;;9.95;6.60;;;16.20;99.90;;;;;;5118302;28;20071;-74
2023/10/11 09:03:18;;;;;;;9.68;5.90;;;16.30;99.90;;;;;;5100200;28;20019;-75
2023/10/11 09:05:45;;;;;;;9.82;6.10;;;16.30;99.90;;;;;;5117623;28;20083;-75
2023/10/11 09:08:26;;;;;;;9.35;6.53;;;16.40;99.90;;;;;;5118070;28;20512;-74
2023/10/11 09:10:51;;;;;;;11.05;7.25;;;16.40;99.90;;;;;;5118340;28;20031;-74
2023/10/11 09:13:27;;;;;;;9.77;6.57;;;16.40;99.90;;;;;;5118448;28;20027;-74
2023/10/11 09:15:55;;;;;;;10.13;6.90;;;16.40;99.90;;;;;;5099944;28;20050;-76
2023/10/11 09:18:25;;;;;;;9.85;6.82;;;16.50;99.90;;;;;;5119357;27;20037;-74
2023/10/11 09:21:09;;;;;;;9.23;6.40;;;16.60;99.90;;;;;;5117631;28;20028;-69
2023/10/11 09:23:35;;;;;;;9.98;6.40;;;16.70;99.90;;;;;;5118031;28;20131;-69
2023/10/11 09:26:02;;;;;;;9.65;7.20;;;16.80;99.90;;;;;;5095744;28;20051;-76
2023/10/11 09:28:33;;;;;;;10.32;7.43;;;16.80;99.90;;;;;;5117995;28;20551;-77
2023/10/11 09:31:15;;;;;;;10.85;7.40;;;16.90;99.90;;;;;;5118135;28;20027;-76
2023/10/11 09:33:46;;;;;;;10.55;6.75;;;16.90;99.90;;;;;;5118166;28;20510;-69
2023/10/11 09:36:12;;;;;;;11.65;7.88;;;17.10;99.90;;;;;;5116316;28;20031;-76
2023/10/11 09:38:41;;;;;;;11.52;7.57;;;17.20;99.90;;;;;;5116592;28;20023;-76
2023/10/11 09:41:08;;;;;;;11.40;7.13;;;17.30;99.90;;;;;;5104744;28;20087;-69
2023/10/11 09:43:46;;;;;;;10.43;6.97;;;17.40;99.90;;;;;;5099583;28;20012;-76
2023/10/11 09:46:13;;;;;;;10.77;7.40;;;17.50;99.90;;;;;;5117712;28;20019;-76
2023/10/11 09:48:42;;;;;;;10.68;7.57;;;17.50;99.90;;;;;;5117846;28;20012;-76
2023/10/11 09:51:14;;;;;;;11.05;7.43;;;17.40;99.90;;;;;;5117337;28;20027;-77
2023/10/11 09:53:42;;;;;;;11.10;7.25;;;17.40;99.90;;;;;;5117901;28;20030;-75
2023/10/11 09:56:22;;;;;;;10.82;7.20;;;17.40;99.90;;;;;;5117149;28;20365;-69
2023/10/11 09:59:25;;;;;;;11.75;7.35;;;17.40;99.90;;;;;;5114476;28;20019;-69
2023/10/11 10:01:56;;;;;;;10.07;7.03;;;17.50;99.90;;;;;;5096297;28;20526;-68
2023/10/11 10:04:50;;;;;;;10.52;7.18;;;17.50;99.90;;;;;;5116668;28;20523;-69
2023/10/11 10:07:25;;;;;;;10.63;6.57;;;17.60;99.90;;;;;;5115249;28;20076;-69
2023/10/11 10:09:59;;;;;;;12.95;8.20;;;17.70;99.90;;;;;;5114770;28;20487;-68
2023/10/11 10:12:31;;;;;;;10.68;7.45;;;17.80;99.90;;;;;;5116821;28;20038;-67
2023/10/11 10:15:09;;;;;;;10.10;6.88;;;17.80;99.90;;;;;;5116769;28;20383;-69
2023/10/11 10:17:37;;;;;;;8.73;6.68;;;17.80;99.90;;;;;;5118829;27;20073;-68
2023/10/11 10:20:42;;;;;;;9.65;6.25;;;17.80;99.90;;;;;;5120417;28;20038;-68
2023/10/11 10:23:16;;;;;;;9.55;6.60;;;17.80;99.90;;;;;;5117427;28;20027;-68
2023/10/11 10:25:46;;;;;;;10.57;6.88;;;17.90;99.90;;;;;;5120759;28;20519;-69
2023/10/11 10:28:34;;;;;;;9.88;6.38;;;18.00;99.90;;;;;;5118625;28;20027;-69
2023/10/11 10:31:16;;;;;;;9.18;6.72;;;18.00;99.90;;;;;;5119770;28;20157;-68
2023/10/11 10:33:43;;;;;;;9.30;6.32;;;18.10;99.90;;;;;;5119853;28;20015;-69
2023/10/11 10:36:31;;;;;;;9.70;6.47;;;18.20;99.90;;;;;;5117592;28;20033;-69
2023/10/11 10:39:47;;;;;;;8.70;5.57;;;18.20;99.90;;;;;;5106624;28;20038;-69
2023/10/11 10:42:12;;;;;;;10.52;5.88;;;18.20;99.90;;;;;;5101714;28;20042;-67
2023/10/11 10:44:52;;;;;;;7.95;5.20;;;18.30;99.90;;;;;;5121002;28;20027;-71
2023/10/11 10:47:25;;;;;;;8.25;5.55;;;18.50;99.90;;;;;;5121108;28;20367;-70
2023/10/11 10:49:53;;;;;;;8.38;5.57;;;18.60;99.90;;;;;;5120636;28;20069;-71
2023/10/11 10:52:29;;;;;;;8.55;5.90;;;18.70;99.90;;;;;;5120900;28;20092;-74
2023/10/11 10:55:02;;;;;;;8.88;6.10;;;18.80;99.90;;;;;;5117850;28;20420;-69
2023/10/11 10:57:31;;;;;;;7.13;5.18;;;18.80;99.90;;;;;;5119341;28;20468;-71
2023/10/11 11:00:05;;;;;;;9.25;5.30;;;18.90;99.90;;;;;;5120558;28;20067;-70
2023/10/11 11:02:37;;;;;;;8.80;5.35;;;19.00;99.90;;;;;;5120211;28;20024;-70
2023/10/11 11:05:13;;;;;;;7.35;5.40;;;19.20;99.90;;;;;;5102135;28;20019;-70
2023/10/11 11:07:49;;;;;;;10.35;5.70;;;19.20;99.90;;;;;;5120544;28;20515;-71
2023/10/11 11:10:20;;;;;;;9.70;5.20;;;19.30;99.90;;;;;;5132160;27;20041;-70
2023/10/11 11:12:49;;;;;;;8.55;5.35;;;19.30;99.90;;;;;;5121318;27;20024;-70
2023/10/11 11:15:21;;;;;;;7.43;5.70;;;19.50;99.90;;;;;;5120603;28;20046;-70
2023/10/11 11:17:51;;;;;;;7.57;5.57;;;19.50;99.90;;;;;;5102544;28;20028;-69
2023/10/11 11:22:46;;;;;;;7.88;5.63;;;19.60;99.90;;;;;;5120390;28;20399;-71
2023/10/11 11:25:27;;;;;;;8.57;6.00;;;19.60;99.90;;;;;;5119936;28;20015;-70
2023/10/11 11:28:15;;;;;;;8.85;6.00;;;19.70;99.90;;;;;;5119046;28;20032;-71
2023/10/11 11:31:09;;;;;;;7.78;5.90;;;19.80;99.90;;;;;;5119937;28;20035;-71
2023/10/11 11:33:36;;;;;;;8.80;6.30;;;20.00;99.90;;;;;;5120182;28;20024;-71
2023/10/11 11:36:10;;;;;;;8.98;6.22;;;20.00;99.90;;;;;;5118414;28;20433;-78
2023/10/11 11:38:46;;;;;;;8.95;6.18;;;20.10;99.90;;;;;;5119588;28;20024;-71
2023/10/11 11:41:16;;;;;;;8.75;6.38;;;20.30;99.90;;;;;;5119394;28;20027;-68
2023/10/11 11:43:43;;;;;;;9.13;5.97;;;20.50;98.80;;;;;;5119761;28;20027;-78
2023/10/11 11:46:09;;;;;;;8.32;5.65;;;20.60;98.20;;;;;;5120014;28;20024;-71
2023/10/11 11:48:41;;;;;;;6.90;4.93;;;20.70;97.90;;;;;;5119809;28;20540;-70
2023/10/11 11:51:14;;;;;;;6.18;4.85;;;20.80;98.20;;;;;;5119109;28;20023;-69
2023/10/11 11:53:44;;;;;;;5.32;4.40;;;20.90;97.80;;;;;;5119443;28;20083;-74
2023/10/11 11:56:14;;;;;;;7.03;4.50;;;21.10;98.60;;;;;;5113781;28;20046;-74
2023/10/11 11:58:46;;;;;;;5.53;3.70;;;21.30;96.80;;;;;;5119778;28;20384;-73
2023/10/11 12:01:15;;;;;;;5.80;4.03;;;21.50;96.20;;;;;;5119313;28;20416;-74
2023/10/11 12:03:42;;;;;;;6.45;3.95;;;21.50;95.60;;;;;;5101340;28;20045;-75
2023/10/11 12:06:21;;;;;;;5.28;3.72;;;21.60;94.20;;;;;;5119300;28;20539;-74
2023/10/11 12:08:57;;;;;;;5.30;3.17;;;21.70;93.90;;;;;;5119850;28;20107;-75
2023/10/11 12:11:23;;;;;;;4.55;3.40;;;21.70;93.60;;;;;;5106573;28;20499;-74
2023/10/11 12:13:49;;;;;;;3.95;3.08;;;21.80;92.00;;;;;;5100856;28;20023;-77
2023/10/11 12:16:20;;;;;;;3.17;2.55;;;21.80;91.90;;;;;;5119531;28;20027;-73
2023/10/11 12:18:45;;;;;;;3.40;2.70;;;21.80;91.90;;;;;;5101668;28;20035;-74
2023/10/11 12:21:11;;;;;;;5.03;2.88;;;21.90;85.40;;;;;;5100726;28;20102;-75
2023/10/11 12:23:48;;;;;;;3.40;2.60;;;21.90;89.80;;;;;;5119570;28;20085;-77
2023/10/11 12:26:18;;;;;;;3.85;2.70;;;22.00;91.00;;;;;;5119343;28;20023;-71
2023/10/11 12:28:47;;;;;;;4.45;2.40;;;22.00;90.70;;;;;;5119039;28;20070;-72
2023/10/11 12:31:13;;;;;;;3.67;2.40;;;22.00;86.90;;;;;;5119185;28;20016;-77
2023/10/11 12:33:39;;;;;;;2.65;2.05;;;21.90;82.50;;;;;;5119058;28;20062;-73
2023/10/11 12:36:06;;;;;;;4.03;2.40;;;22.00;81.00;;;;;;5100564;28;20028;-70
2023/10/11 12:38:36;;;;;;;4.05;2.38;;;21.90;82.10;;;;;;5118922;28;20032;-73
2023/10/11 12:41:03;;;;;;;2.80;2.03;;;21.90;78.20;;;;;;5099277;28;20024;-74
2023/10/11 12:43:29;;;;;;;2.50;2.00;;;22.00;79.00;;;;;;5118848;28;20035;-72
2023/10/11 12:45:55;;;;;;;3.63;2.00;;;22.00;78.40;;;;;;5119029;28;20027;-71
2023/10/11 12:48:21;;;;;;;3.20;1.92;;;22.00;77.40;;;;;;5118525;28;20028;-83
2023/10/11 12:50:46;;;;;;;3.25;2.17;;;22.00;75.30;;;;;;5099928;28;20467;-69
2023/10/11 12:53:13;;;;;;;4.05;1.83;;;22.00;75.30;;;;;;5118299;28;20423;-76
2023/10/11 12:55:49;;;;;;;2.83;2.00;;;22.00;75.90;;;;;;5118572;28;20023;-69
2023/10/11 12:58:15;;;;;;;2.95;2.22;;;22.00;79.80;;;;;;5117120;28;20076;-71
2023/10/11 13:00:58;;;;;;;4.88;2.30;;;22.00;73.00;;;;;;5118172;28;20043;-71
2023/10/11 13:03:37;;;;;;;4.13;1.95;;;22.00;73.00;;;;;;5118708;28;20032;-70
2023/10/11 13:06:09;;;;;;;3.60;1.90;;;22.00;72.30;;;;;;5118155;28;20044;-71
2023/10/11 13:08:37;;;;;;;3.47;2.10;;;22.00;71.30;;;;;;5118555;28;20104;-69
2023/10/11 13:11:05;;;;;;;3.13;1.65;;;22.10;69.90;;;;;;5118138;28;20094;-70
2023/10/11 13:13:32;;;;;;;3.60;1.85;;;22.10;69.30;;;;;;5118278;28;20024;-74
2023/10/11 13:16:00;;;;;;;3.33;1.88;;;22.10;67.80;;;;;;5099789;28;20028;-76
2023/10/11 13:18:40;;;;;;;2.42;1.85;;;22.20;70.20;;;;;;5100696;28;20510;-75
2023/10/11 13:21:16;;;;;;;3.20;2.05;;;22.30;72.00;;;;;;5118135;28;20027;-75
2023/10/11 13:23:43;;;;;;;2.90;1.73;;;22.30;68.80;;;;;;5099765;28;20027;-73
2023/10/11 13:26:09;;;;;;;3.85;2.00;;;22.40;69.20;;;;;;5099524;28;20023;-72
2023/10/11 13:28:36;;;;;;;5.05;2.00;;;22.40;68.00;;;;;;5117777;28;20030;-72
2023/10/11 13:31:05;;;;;;;3.08;1.90;;;22.50;67.60;;;;;;5099498;28;20030;-72
2023/10/11 13:33:31;;;;;;;5.35;2.13;;;22.50;68.10;;;;;;5117625;28;20042;-75
2023/10/11 13:36:02;;;;;;;3.05;1.65;;;22.50;61.90;;;;;;5117526;28;20031;-76
2023/10/11 13:38:30;;;;;;;3.58;1.80;;;22.50;65.00;;;;;;5099435;28;20027;-78
2023/10/11 13:40:56;;;;;;;3.75;1.83;;;22.50;65.10;;;;;;5117519;28;20491;-77
2023/10/11 13:43:22;;;;;;;2.40;1.60;;;22.50;64.70;;;;;;5117683;28;20020;-76
2023/10/11 13:46:07;;;;;;;2.50;1.65;;;22.50;64.50;;;;;;5117756;28;20015;-70